Atqasuk, Alaska
Current Conditions -  °F | °C
As of 10:56 PM on Saturday 22 Nov 2014 (Local Time) from PATQ Reporting Station
Clear Clear  
Wind Chill: -22°   Ceiling: Unl
Heat Index: -3°   Visibility: 10mi
Dew Point: -7°   Wind: 13mph
Humidity: 83%   Direction: 100°E
Pressure: 29.67"   Gusts: NA
Location:  70.47°N, 157.4°W
Report Text: PATQ 230756Z AUTO 10011KT 10SM CLR M19/M22 A2967 RMK AO2 TSNO T11941216 SLP053 $
Loading
Personal Weather Stations






























Interactive Weather Map New forecast layout! Learn more

10-Day Weather Forecast

Advertisements
Track Severe Weather on mobile